Gleisdorf, Austria
Current Conditions -  °F | °C
As of 8:50 PM on Tuesday 27 Jan 2015 (Local Time) from LOWG Reporting Station
Broken Clouds Broken Clouds  
Wind Chill: 28°   Ceiling: 13000
Heat Index: 28°   Visibility: 6mi
Dew Point: 27°   Wind: 2mph
Humidity: 93%   Direction: NA
Pressure: 30.03"   Gusts: NA
Location:  47.11°N, 15.71°E
Report Text: LOWG 271850Z VRB02KT 9999 SCT060 BKN130 M02/M03 Q1017 R17/1///95 NOSIG
Loading
Personal Weather Stations






























Interactive Weather Map New forecast layout! Learn more

10-Day Weather Forecast

Advertisements
Track Severe Weather on mobile